Time;durP1;ratioP1;P1;durP2;ratioP2;P2;SDS_P1;SDS_P2;PMS_P1;PMS_P2;Temp;Humidity;BMP_temperature;BMP_pressure;BME280_temperature;BME280_humidity;BME280_pressure;Samples;Min_cycle;Max_cycle;Signal;HPM_P1;HPM_P2
2021/08/30 00:03:30;;;;;;;8.95;4.85;;;;;;;;;;8200324;28;20417;-73
2021/08/30 00:07:35;;;;;;;9.50;5.53;;;;;;;;;;8182522;28;20415;-75
2021/08/30 00:11:40;;;;;;;12.25;6.22;;;;;;;;;;8176393;28;20335;-73
2021/08/30 00:15:46;;;;;;;14.18;6.97;;;;;;;;;;8193446;28;20073;-73
2021/08/30 00:19:51;;;;;;;16.40;7.13;;;;;;;;;;8193107;28;20474;-73
2021/08/30 00:23:56;;;;;;;14.98;7.60;;;;;;;;;;8194952;28;20464;-74
2021/08/30 00:28:01;;;;;;;12.88;6.68;;;;;;;;;;8179814;28;20479;-73
2021/08/30 00:32:07;;;;;;;10.10;6.47;;;;;;;;;;8175013;28;20484;-74
2021/08/30 00:36:12;;;;;;;10.15;5.70;;;;;;;;;;8193793;28;20069;-73
2021/08/30 00:40:17;;;;;;;11.70;5.90;;;;;;;;;;8196364;28;20046;-73
2021/08/30 00:44:27;;;;;;;14.82;7.18;;;;;;;;;;8176649;28;20068;-73
2021/08/30 00:48:32;;;;;;;13.00;6.45;;;;;;;;;;8176899;28;20372;-73
2021/08/30 00:52:40;;;;;;;14.05;7.13;;;;;;;;;;8177333;28;20465;-74
2021/08/30 00:56:47;;;;;;;14.30;6.95;;;;;;;;;;8193937;28;20372;-73
2021/08/30 01:00:52;;;;;;;14.63;7.32;;;;;;;;;;8192117;28;20500;-74
2021/08/30 01:04:58;;;;;;;15.07;7.20;;;;;;;;;;8193807;28;20333;-73
2021/08/30 01:09:29;;;;;;;12.73;7.25;;;;;;;;;;8192202;28;20369;-73
2021/08/30 01:13:49;;;;;;;12.02;6.95;;;;;;;;;;8192494;28;20468;-73
2021/08/30 01:17:55;;;;;;;15.93;7.53;;;;;;;;;;8203970;28;20476;-73
2021/08/30 01:22:00;;;;;;;13.95;8.05;;;;;;;;;;8189910;28;20507;-73
2021/08/30 01:26:09;;;;;;;17.92;7.28;;;;;;;;;;8158287;28;20058;-73
2021/08/30 01:30:22;;;;;;;10.98;5.70;;;;;;;;;;8175342;28;20365;-74
2021/08/30 01:34:30;;;;;;;11.48;6.57;;;;;;;;;;8174156;28;20399;-73
2021/08/30 01:38:39;;;;;;;;;;;;;;;;;;8175654;28;20353;-73
2021/08/30 01:42:49;;;;;;;15.93;7.28;;;;;;;;;;8206101;28;19944;-73
2021/08/30 01:46:57;;;;;;;10.23;5.85;;;;;;;;;;8176338;28;20503;-73
2021/08/30 01:51:05;;;;;;;10.68;6.80;;;;;;;;;;8179703;28;20460;-74
2021/08/30 01:55:22;;;;;;;12.05;7.07;;;;;;;;;;8180481;28;20357;-73
2021/08/30 02:03:51;;;;;;;12.95;8.13;;;;;;;;;;8181534;28;20338;-73
2021/08/30 02:07:56;;;;;;;17.25;9.20;;;;;;;;;;8196574;28;20498;-74
2021/08/30 02:12:01;;;;;;;14.82;7.75;;;;;;;;;;8179828;28;20329;-74
2021/08/30 02:16:06;;;;;;;16.75;8.23;;;;;;;;;;8180100;28;20483;-73
2021/08/30 02:20:17;;;;;;;12.68;7.78;;;;;;;;;;8196747;28;20361;-74
2021/08/30 02:25:01;;;;;;;13.15;7.53;;;;;;;;;;8180570;28;20346;-73
2021/08/30 02:29:09;;;;;;;16.20;8.25;;;;;;;;;;8181646;28;20377;-74
2021/08/30 02:33:15;;;;;;;14.60;7.20;;;;;;;;;;8195792;28;20408;-77
2021/08/30 02:37:25;;;;;;;15.52;7.25;;;;;;;;;;8181488;28;20330;-77
2021/08/30 02:41:31;;;;;;;12.60;8.15;;;;;;;;;;8190249;28;20460;-77
2021/08/30 02:45:38;;;;;;;14.65;7.10;;;;;;;;;;8209737;28;20042;-77
2021/08/30 02:49:46;;;;;;;11.38;6.25;;;;;;;;;;8186627;28;20396;-77
2021/08/30 02:53:52;;;;;;;16.83;7.00;;;;;;;;;;8208837;28;20369;-78
2021/08/30 02:58:00;;;;;;;10.77;6.63;;;;;;;;;;8177967;28;20069;-79
2021/08/30 03:02:07;;;;;;;14.23;7.20;;;;;;;;;;8194433;28;20440;-76
2021/08/30 03:06:12;;;;;;;12.02;6.70;;;;;;;;;;8195199;28;20491;-78
2021/08/30 03:10:18;;;;;;;13.05;7.85;;;;;;;;;;8194316;28;20518;-77
2021/08/30 03:14:26;;;;;;;13.63;7.03;;;;;;;;;;8209246;28;20046;-77
2021/08/30 03:18:32;;;;;;;11.05;6.00;;;;;;;;;;8208918;28;20364;-77
2021/08/30 03:22:40;;;;;;;12.43;6.22;;;;;;;;;;8193069;28;20481;-78
2021/08/30 03:26:45;;;;;;;11.23;6.63;;;;;;;;;;8195497;28;20392;-77
2021/08/30 03:30:52;;;;;;;13.50;6.68;;;;;;;;;;8208371;28;20487;-77
2021/08/30 03:34:58;;;;;;;11.27;7.07;;;;;;;;;;8208814;28;20486;-78
2021/08/30 03:39:04;;;;;;;10.30;6.57;;;;;;;;;;8176513;28;20364;-77
2021/08/30 03:43:10;;;;;;;9.30;6.22;;;;;;;;;;8176952;28;20080;-76
2021/08/30 03:47:15;;;;;;;12.23;6.85;;;;;;;;;;8176415;28;20469;-77
2021/08/30 03:51:22;;;;;;;10.63;6.72;;;;;;;;;;8207572;28;20050;-77
2021/08/30 03:55:30;;;;;;;12.00;6.53;;;;;;;;;;8192927;28;20473;-77
2021/08/30 03:59:38;;;;;;;10.95;7.20;;;;;;;;;;8176618;28;20487;-77
2021/08/30 04:03:49;;;;;;;9.90;6.97;;;;;;;;;;8194191;28;20365;-78
2021/08/30 04:07:55;;;;;;;11.35;6.88;;;;;;;;;;8192691;28;20499;-77
2021/08/30 04:12:00;;;;;;;10.57;6.45;;;;;;;;;;8193515;28;20564;-76
2021/08/30 04:16:06;;;;;;;10.25;6.45;;;;;;;;;;8192773;28;20498;-77
2021/08/30 04:20:13;;;;;;;9.38;5.90;;;;;;;;;;8196192;28;20364;-77
2021/08/30 04:24:17;;;;;;;9.48;5.60;;;;;;;;;;8175580;28;20372;-79
2021/08/30 04:28:22;;;;;;;10.73;5.75;;;;;;;;;;8195901;28;20495;-76
2021/08/30 04:32:31;;;;;;;12.43;7.93;;;;;;;;;;8192702;28;20069;-79
2021/08/30 04:36:37;;;;;;;10.32;5.60;;;;;;;;;;8191793;28;20498;-77
2021/08/30 04:40:42;;;;;;;8.75;6.13;;;;;;;;;;8191895;28;20404;-78
2021/08/30 04:44:49;;;;;;;7.78;5.57;;;;;;;;;;8192617;28;20391;-78
2021/08/30 04:48:54;;;;;;;7.93;4.85;;;;;;;;;;8173249;28;20389;-77
2021/08/30 04:52:59;;;;;;;9.25;5.50;;;;;;;;;;8194349;28;20494;-77
2021/08/30 04:57:05;;;;;;;8.10;5.57;;;;;;;;;;8192347;28;20452;-77
2021/08/30 05:01:10;;;;;;;9.27;6.10;;;;;;;;;;8192052;28;20064;-77
2021/08/30 05:05:16;;;;;;;8.85;5.57;;;;;;;;;;8160406;28;20367;-77
2021/08/30 05:09:22;;;;;;;13.48;6.68;;;;;;;;;;8191855;28;20441;-77
2021/08/30 05:13:27;;;;;;;11.63;6.13;;;;;;;;;;8192252;28;20489;-77
2021/08/30 05:17:33;;;;;;;8.18;5.60;;;;;;;;;;8191890;28;20336;-77
2021/08/30 05:21:38;;;;;;;9.05;5.72;;;;;;;;;;8194335;28;20045;-77
2021/08/30 05:25:45;;;;;;;9.40;6.15;;;;;;;;;;8179572;28;20487;-77
2021/08/30 05:29:50;;;;;;;7.93;5.50;;;;;;;;;;8180998;28;20334;-77
2021/08/30 05:33:57;;;;;;;10.70;5.80;;;;;;;;;;8198822;28;20357;-78
2021/08/30 05:38:03;;;;;;;11.70;5.43;;;;;;;;;;8180603;28;20372;-78
2021/08/30 05:42:08;;;;;;;8.90;4.90;;;;;;;;;;8197024;28;20412;-76
2021/08/30 05:46:16;;;;;;;8.32;4.90;;;;;;;;;;8199137;28;20469;-78
2021/08/30 05:50:21;;;;;;;;;;;;;;;;;;8197522;28;20068;-77
2021/08/30 05:54:26;;;;;;;11.15;7.63;;;;;;;;;;8197459;28;20264;-77
2021/08/30 05:58:32;;;;;;;8.82;5.82;;;;;;;;;;8179558;28;20340;-78
2021/08/30 06:02:37;;;;;;;6.57;4.90;;;;;;;;;;8178729;28;20465;-77
2021/08/30 06:06:42;;;;;;;8.10;4.88;;;;;;;;;;8198306;28;20384;-77
2021/08/30 06:10:47;;;;;;;6.40;4.35;;;;;;;;;;8198295;28;20346;-78
2021/08/30 06:14:53;;;;;;;6.88;4.22;;;;;;;;;;8180822;28;20476;-77
2021/08/30 06:18:58;;;;;;;7.55;4.82;;;;;;;;;;8196826;28;20503;-78
2021/08/30 06:23:03;;;;;;;9.80;4.50;;;;;;;;;;8195948;28;20492;-78
2021/08/30 06:27:09;;;;;;;7.53;4.90;;;;;;;;;;8196243;28;20381;-77
2021/08/30 06:31:14;;;;;;;7.43;4.97;;;;;;;;;;8197400;28;20354;-77
2021/08/30 06:35:20;;;;;;;6.97;4.95;;;;;;;;;;8210785;28;20377;-77
2021/08/30 06:39:25;;;;;;;7.75;4.82;;;;;;;;;;8198591;28;20498;-78
2021/08/30 06:43:30;;;;;;;8.60;5.25;;;;;;;;;;8207857;28;20453;-77
2021/08/30 06:47:35;;;;;;;7.50;5.45;;;;;;;;;;8191448;28;20415;-77
2021/08/30 06:51:41;;;;;;;7.15;5.07;;;;;;;;;;8195020;28;20372;-77
2021/08/30 06:55:46;;;;;;;13.25;5.70;;;;;;;;;;8210825;28;20053;-77
2021/08/30 06:59:51;;;;;;;8.70;5.78;;;;;;;;;;8195920;28;20461;-77
2021/08/30 07:03:58;;;;;;;7.65;5.30;;;;;;;;;;8214641;28;20364;-77
2021/08/30 07:08:04;;;;;;;9.10;5.00;;;;;;;;;;8189938;28;20080;-77
2021/08/30 07:12:09;;;;;;;6.78;5.05;;;;;;;;;;8208992;28;20483;-77
2021/08/30 07:16:14;;;;;;;7.80;5.22;;;;;;;;;;8204032;28;20388;-77
2021/08/30 07:20:20;;;;;;;7.50;5.13;;;;;;;;;;8197043;28;20042;-77
2021/08/30 07:24:25;;;;;;;8.57;5.07;;;;;;;;;;8202987;28;20088;-77
2021/08/30 07:28:30;;;;;;;6.90;5.13;;;;;;;;;;8187277;28;20498;-77
2021/08/30 07:32:35;;;;;;;6.97;4.25;;;;;;;;;;8203787;28;20503;-77
2021/08/30 07:36:41;;;;;;;5.60;3.78;;;;;;;;;;8196235;28;20069;-78
2021/08/30 07:40:48;;;;;;;6.57;4.35;;;;;;;;;;8175629;28;20499;-77
2021/08/30 07:44:51;;;;;;;7.18;5.03;;;;;;;;;;8193108;28;20372;-78
2021/08/30 07:48:56;;;;;;;7.10;5.22;;;;;;;;;;8177602;28;20364;-77
2021/08/30 07:53:01;;;;;;;8.90;5.97;;;;;;;;;;8209526;28;20709;-77
2021/08/30 07:57:08;;;;;;;13.07;7.15;;;;;;;;;;8160148;28;20358;-78
2021/08/30 08:01:13;;;;;;;9.32;6.57;;;;;;;;;;8194409;28;20453;-77
2021/08/30 08:05:19;;;;;;;9.07;5.55;;;;;;;;;;8198984;28;20483;-77
2021/08/30 08:09:24;;;;;;;8.00;5.63;;;;;;;;;;8189210;28;20054;-77
2021/08/30 08:13:30;;;;;;;8.70;5.95;;;;;;;;;;8201413;28;20352;-77
2021/08/30 08:17:37;;;;;;;7.00;5.00;;;;;;;;;;8200985;28;20368;-77
2021/08/30 08:21:43;;;;;;;6.13;5.13;;;;;;;;;;8197755;28;20064;-78
2021/08/30 08:25:49;;;;;;;7.20;5.55;;;;;;;;;;8197847;28;20062;-77
2021/08/30 08:29:54;;;;;;;7.47;6.13;;;;;;;;;;8195032;28;20345;-77
2021/08/30 08:33:59;;;;;;;9.85;6.95;;;;;;;;;;8197059;28;20563;-77
2021/08/30 08:38:04;;;;;;;8.23;6.13;;;;;;;;;;8196879;28;20034;-77
2021/08/30 08:42:09;;;;;;;8.75;5.18;;;;;;;;;;8197254;28;20530;-76
2021/08/30 08:46:16;;;;;;;8.43;5.43;;;;;;;;;;8210629;28;20483;-78
2021/08/30 08:50:26;;;;;;;8.55;5.43;;;;;;;;;;8179677;28;20385;-77
2021/08/30 08:54:31;;;;;;;7.82;5.38;;;;;;;;;;8177531;28;20448;-77
2021/08/30 08:58:37;;;;;;;7.75;5.10;;;;;;;;;;8182277;28;20365;-77
2021/08/30 09:02:42;;;;;;;8.95;5.45;;;;;;;;;;8200589;28;20495;-77
2021/08/30 09:06:48;;;;;;;6.97;5.22;;;;;;;;;;8200454;28;20468;-77
2021/08/30 09:10:54;;;;;;;7.97;5.50;;;;;;;;;;8198259;28;20383;-77
2021/08/30 09:14:59;;;;;;;8.07;5.57;;;;;;;;;;8183472;28;20476;-78
2021/08/30 09:19:08;;;;;;;9.73;6.07;;;;;;;;;;8199126;28;20367;-77
2021/08/30 09:23:15;;;;;;;8.65;5.32;;;;;;;;;;8215498;28;20530;-77
2021/08/30 09:27:20;;;;;;;10.30;6.50;;;;;;;;;;8213423;28;20476;-77
2021/08/30 09:31:26;;;;;;;7.97;5.40;;;;;;;;;;8198147;28;20791;-77
2021/08/30 09:35:31;;;;;;;7.15;4.97;;;;;;;;;;8182773;28;20042;-78
2021/08/30 09:39:50;;;;;;;5.43;4.73;;;;;;;;;;8188231;28;20592;-79
2021/08/30 09:44:03;;;;;;;9.60;5.50;;;;;;;;;;8203281;28;20491;-78
2021/08/30 09:48:12;;;;;;;6.63;4.70;;;;;;;;;;8210602;28;20460;-78
2021/08/30 09:52:20;;;;;;;6.32;4.32;;;;;;;;;;8215206;28;20367;-77
2021/08/30 09:56:25;;;;;;;8.55;4.20;;;;;;;;;;8221302;28;20376;-77
2021/08/30 10:00:31;;;;;;;5.95;4.38;;;;;;;;;;8211831;28;20489;-77
2021/08/30 10:04:37;;;;;;;6.22;3.88;;;;;;;;;;8211190;28;20412;-78
2021/08/30 10:08:43;;;;;;;5.68;3.60;;;;;;;;;;8200730;28;20072;-78
2021/08/30 10:12:49;;;;;;;4.63;3.15;;;;;;;;;;8186456;28;20046;-77
2021/08/30 10:16:57;;;;;;;4.95;3.35;;;;;;;;;;8186952;28;20490;-77
2021/08/30 10:21:14;;;;;;;;;;;;;;;;;;8213642;28;20468;-78
2021/08/30 10:25:19;;;;;;;3.88;2.75;;;;;;;;;;8197470;28;20341;-78
2021/08/30 10:29:34;;;;;;;6.88;3.97;;;;;;;;;;8198031;28;20388;-77
2021/08/30 10:33:40;;;;;;;3.42;2.85;;;;;;;;;;8199007;28;20372;-77
2021/08/30 10:37:59;;;;;;;5.07;2.58;;;;;;;;;;8200259;28;20348;-77
2021/08/30 10:42:05;;;;;;;4.47;2.53;;;;;;;;;;8200615;28;20068;-78
2021/08/30 10:46:17;;;;;;;5.57;2.65;;;;;;;;;;8200266;28;20045;-76
2021/08/30 10:50:24;;;;;;;4.25;2.92;;;;;;;;;;8196471;28;20473;-77
2021/08/30 10:54:29;;;;;;;4.13;2.58;;;;;;;;;;8198336;28;20461;-78
2021/08/30 10:58:34;;;;;;;4.25;2.58;;;;;;;;;;8177755;28;20468;-76
2021/08/30 11:02:48;;;;;;;3.53;2.30;;;;;;;;;;8179121;28;20384;-77
2021/08/30 11:06:56;;;;;;;2.85;2.40;;;;;;;;;;8180704;28;20381;-78
2021/08/30 11:11:19;;;;;;;3.40;2.10;;;;;;;;;;8195071;28;20499;-77
2021/08/30 11:15:34;;;;;;;3.85;2.40;;;;;;;;;;8195632;28;20046;-76
2021/08/30 11:19:38;;;;;;;3.22;2.20;;;;;;;;;;8177847;28;20490;-77
2021/08/30 11:23:43;;;;;;;5.43;2.45;;;;;;;;;;8176916;28;20770;-77
2021/08/30 11:27:48;;;;;;;2.63;2.30;;;;;;;;;;8194982;28;20464;-78
2021/08/30 11:31:54;;;;;;;4.00;2.67;;;;;;;;;;8211915;28;20050;-76
2021/08/30 11:36:02;;;;;;;3.20;2.50;;;;;;;;;;8217805;28;20481;-77
2021/08/30 11:40:10;;;;;;;;;;;;;;;;;;8191210;28;20041;-77
2021/08/30 11:44:15;;;;;;;3.75;2.70;;;;;;;;;;8202328;28;19921;-77
2021/08/30 11:48:20;;;;;;;5.45;3.08;;;;;;;;;;8201277;28;20495;-77
2021/08/30 11:52:28;;;;;;;6.60;3.50;;;;;;;;;;8196406;28;20404;-78
2021/08/30 11:56:37;;;;;;;8.25;4.05;;;;;;;;;;8194078;28;20033;-77
2021/08/30 12:00:42;;;;;;;10.68;6.15;;;;;;;;;;8180306;28;20050;-77
2021/08/30 12:05:00;;;;;;;6.05;3.20;;;;;;;;;;8195334;28;20364;-77
2021/08/30 12:09:06;;;;;;;6.07;3.42;;;;;;;;;;8196811;28;20491;-77
2021/08/30 12:13:43;;;;;;;7.32;3.63;;;;;;;;;;8212470;28;20054;-76
2021/08/30 12:17:55;;;;;;;8.98;3.95;;;;;;;;;;8181556;28;20353;-77
2021/08/30 12:22:00;;;;;;;7.93;4.68;;;;;;;;;;8217316;28;20375;-77
2021/08/30 12:26:05;;;;;;;8.52;4.68;;;;;;;;;;8200516;28;20487;-77
2021/08/30 12:30:23;;;;;;;9.55;4.30;;;;;;;;;;8181626;28;20464;-77
2021/08/30 12:34:29;;;;;;;9.98;4.95;;;;;;;;;;8195760;28;20372;-77
2021/08/30 12:38:34;;;;;;;8.73;4.28;;;;;;;;;;8192916;28;20488;-79
2021/08/30 12:42:39;;;;;;;7.35;4.20;;;;;;;;;;8194376;28;20337;-78
2021/08/30 12:46:44;;;;;;;5.10;3.90;;;;;;;;;;8198626;28;20046;-78
2021/08/30 12:50:50;;;;;;;8.15;4.18;;;;;;;;;;8198998;28;20385;-77
2021/08/30 12:54:56;;;;;;;7.85;4.00;;;;;;;;;;8196874;28;20046;-77
2021/08/30 12:59:01;;;;;;;5.88;3.40;;;;;;;;;;8200698;28;20072;-76
2021/08/30 13:03:07;;;;;;;6.43;4.05;;;;;;;;;;8162357;28;20054;-77
2021/08/30 13:07:12;;;;;;;7.60;3.67;;;;;;;;;;8205338;28;20496;-78
2021/08/30 13:11:17;;;;;;;5.13;3.50;;;;;;;;;;8215918;28;20475;-77
2021/08/30 13:15:24;;;;;;;5.07;3.65;;;;;;;;;;8212823;28;20454;-77
2021/08/30 13:19:30;;;;;;;6.20;3.58;;;;;;;;;;8237302;28;20046;-78
2021/08/30 13:23:33;;;;;;;5.85;3.65;;;;;;;;;;8227891;28;20468;-77
2021/08/30 13:27:55;;;;;;;6.32;3.50;;;;;;;;;;8261180;28;20348;-77
2021/08/30 13:32:00;;;;;;;5.03;3.20;;;;;;;;;;8240820;28;20427;-76
2021/08/30 13:36:06;;;;;;;6.25;2.72;;;;;;;;;;8220095;28;20168;-77
2021/08/30 13:40:14;;;;;;;7.00;3.47;;;;;;;;;;8192882;28;20368;-77
2021/08/30 13:44:18;;;;;;;7.20;3.90;;;;;;;;;;8208580;28;20475;-77
2021/08/30 13:48:21;;;;;;;8.02;2.75;;;;;;;;;;8194470;28;20486;-77
2021/08/30 13:52:29;;;;;;;4.88;3.22;;;;;;;;;;8212579;28;20472;-78
2021/08/30 13:56:34;;;;;;;6.25;2.58;;;;;;;;;;8238502;28;20440;-78
2021/08/30 14:00:41;;;;;;;5.32;3.00;;;;;;;;;;8245236;28;20068;-77
2021/08/30 14:04:46;;;;;;;4.40;2.55;;;;;;;;;;8214311;28;20367;-77
2021/08/30 14:08:51;;;;;;;6.35;3.08;;;;;;;;;;8230390;28;20064;-77
2021/08/30 14:12:55;;;;;;;6.80;4.53;;;;;;;;;;8215945;28;20341;-78
2021/08/30 14:17:00;;;;;;;6.57;3.75;;;;;;;;;;8190003;28;20052;-77
2021/08/30 14:21:03;;;;;;;5.38;3.30;;;;;;;;;;8232838;28;20487;-77
2021/08/30 14:25:08;;;;;;;13.10;4.28;;;;;;;;;;8237600;28;20388;-78
2021/08/30 14:29:13;;;;;;;8.68;4.47;;;;;;;;;;8219659;28;20337;-77
2021/08/30 14:33:17;;;;;;;6.05;3.50;;;;;;;;;;8220158;28;20408;-80
2021/08/30 14:37:22;;;;;;;4.05;2.88;;;;;;;;;;8187450;28;20465;-77
2021/08/30 14:41:26;;;;;;;3.83;2.97;;;;;;;;;;8216048;28;20354;-78
2021/08/30 14:45:30;;;;;;;5.22;2.80;;;;;;;;;;8250378;28;20037;-79
2021/08/30 14:49:35;;;;;;;4.60;2.78;;;;;;;;;;8239111;28;20363;-76
2021/08/30 14:53:38;;;;;;;5.22;3.28;;;;;;;;;;8216893;28;20033;-77
2021/08/30 14:57:42;;;;;;;4.43;2.85;;;;;;;;;;8214830;28;20412;-78
2021/08/30 15:01:50;;;;;;;5.05;3.47;;;;;;;;;;8219875;28;20472;-78
2021/08/30 15:06:14;;;;;;;5.53;3.70;;;;;;;;;;8200130;28;20399;-77
2021/08/30 15:10:34;;;;;;;5.43;3.40;;;;;;;;;;8230367;28;20041;-78
2021/08/30 15:14:40;;;;;;;5.47;3.75;;;;;;;;;;8238286;28;20321;-77
2021/08/30 15:18:45;;;;;;;6.63;4.20;;;;;;;;;;8237024;28;20391;-77
2021/08/30 15:22:53;;;;;;;5.47;3.70;;;;;;;;;;8245096;28;20359;-79
2021/08/30 15:26:58;;;;;;;9.80;4.10;;;;;;;;;;8252228;28;20352;-78
2021/08/30 15:31:03;;;;;;;7.30;4.28;;;;;;;;;;8233704;28;20045;-78
2021/08/30 15:35:11;;;;;;;6.10;4.15;;;;;;;;;;8252340;28;20388;-78
2021/08/30 15:39:17;;;;;;;8.48;4.47;;;;;;;;;;8253768;28;20488;-78
2021/08/30 15:43:22;;;;;;;6.85;4.45;;;;;;;;;;8255073;28;20041;-78
2021/08/30 15:47:27;;;;;;;6.75;4.45;;;;;;;;;;8259014;28;20486;-77
2021/08/30 15:51:32;;;;;;;8.38;4.75;;;;;;;;;;8242895;28;20514;-78
2021/08/30 15:55:37;;;;;;;6.80;4.60;;;;;;;;;;8246249;28;20056;-77
2021/08/30 15:59:42;;;;;;;8.32;5.18;;;;;;;;;;8264823;28;20368;-79
2021/08/30 16:03:48;;;;;;;7.35;4.80;;;;;;;;;;8235974;28;20034;-78
2021/08/30 16:07:53;;;;;;;6.97;5.00;;;;;;;;;;8220607;28;20410;-78
2021/08/30 16:11:58;;;;;;;7.32;5.30;;;;;;;;;;8256235;28;20041;-77
2021/08/30 16:16:05;;;;;;;9.63;5.85;;;;;;;;;;8238971;28;20049;-77
2021/08/30 16:20:11;;;;;;;13.00;7.97;;;;;;;;;;8242191;28;20480;-78
2021/08/30 16:24:17;;;;;;;10.75;7.03;;;;;;;;;;8245511;28;20387;-77
2021/08/30 16:28:22;;;;;;;12.85;7.82;;;;;;;;;;8228759;28;20391;-78
2021/08/30 16:32:30;;;;;;;12.35;8.20;;;;;;;;;;8237170;28;20068;-77
2021/08/30 16:36:35;;;;;;;13.88;8.05;;;;;;;;;;8222221;28;20377;-77
2021/08/30 16:40:40;;;;;;;12.10;7.32;;;;;;;;;;8238637;28;20468;-77
2021/08/30 16:44:46;;;;;;;12.25;7.25;;;;;;;;;;8252918;28;20460;-77
2021/08/30 16:48:51;;;;;;;12.65;8.82;;;;;;;;;;8236456;28;20046;-77
2021/08/30 16:52:56;;;;;;;14.38;8.60;;;;;;;;;;8228844;28;20472;-77
2021/08/30 16:57:02;;;;;;;10.15;6.78;;;;;;;;;;8228369;28;20379;-77
2021/08/30 17:01:07;;;;;;;10.52;6.43;;;;;;;;;;8233861;28;20371;-77
2021/08/30 17:05:12;;;;;;;12.02;7.00;;;;;;;;;;8231511;28;20378;-77
2021/08/30 17:09:17;;;;;;;13.02;8.75;;;;;;;;;;8231877;28;20472;-78
2021/08/30 17:13:23;;;;;;;15.20;9.73;;;;;;;;;;8227587;28;20472;-77
2021/08/30 17:17:28;;;;;;;24.67;13.50;;;;;;;;;;8229763;28;20441;-78
2021/08/30 17:21:34;;;;;;;24.02;13.45;;;;;;;;;;8247808;28;20372;-77
2021/08/30 17:25:39;;;;;;;32.63;15.40;;;;;;;;;;8230788;28;20364;-78
2021/08/30 17:29:44;;;;;;;29.95;15.25;;;;;;;;;;8246790;28;20497;-78
2021/08/30 17:33:50;;;;;;;27.83;15.02;;;;;;;;;;8238492;28;20403;-77
2021/08/30 17:37:56;;;;;;;29.70;15.43;;;;;;;;;;8233954;28;20383;-76
2021/08/30 17:42:01;;;;;;;31.88;14.90;;;;;;;;;;8211575;28;20380;-76
2021/08/30 17:46:07;;;;;;;33.35;18.92;;;;;;;;;;8232361;28;20049;-77
2021/08/30 17:50:12;;;;;;;26.40;15.55;;;;;;;;;;8237839;28;20706;-77
2021/08/30 17:54:17;;;;;;;27.88;15.95;;;;;;;;;;8234175;28;20368;-77
2021/08/30 17:58:23;;;;;;;24.10;16.25;;;;;;;;;;8232563;28;20471;-77
2021/08/30 18:02:28;;;;;;;26.65;16.13;;;;;;;;;;8230972;28;20490;-77
2021/08/30 18:06:34;;;;;;;26.95;16.60;;;;;;;;;;8243259;28;20468;-77
2021/08/30 18:10:39;;;;;;;24.20;12.68;;;;;;;;;;8230558;28;20384;-76
2021/08/30 18:14:44;;;;;;;21.45;11.60;;;;;;;;;;8229369;28;20579;-76
2021/08/30 18:18:50;;;;;;;22.95;10.88;;;;;;;;;;8229438;28;20353;-78
2021/08/30 18:22:54;;;;;;;16.70;10.77;;;;;;;;;;8244558;28;20480;-78
2021/08/30 18:26:58;;;;;;;17.48;10.95;;;;;;;;;;8229771;28;20497;-79
2021/08/30 18:31:04;;;;;;;24.15;10.45;;;;;;;;;;8229033;28;20476;-79
2021/08/30 18:35:10;;;;;;;17.17;10.07;;;;;;;;;;8228771;28;20072;-79
2021/08/30 18:39:15;;;;;;;22.83;11.93;;;;;;;;;;8228706;28;20475;-78
2021/08/30 18:43:20;;;;;;;21.33;11.82;;;;;;;;;;8210848;28;20476;-79
2021/08/30 18:47:25;;;;;;;22.35;12.63;;;;;;;;;;8230719;28;20490;-77
2021/08/30 18:51:31;;;;;;;20.27;13.35;;;;;;;;;;8229196;28;20487;-78
2021/08/30 18:55:36;;;;;;;28.65;15.85;;;;;;;;;;8242800;28;20388;-78
2021/08/30 18:59:41;;;;;;;32.30;16.63;;;;;;;;;;8229251;28;20360;-78
2021/08/30 19:03:47;;;;;;;26.20;15.77;;;;;;;;;;8228832;28;20075;-77
2021/08/30 19:07:51;;;;;;;26.48;15.23;;;;;;;;;;8211722;28;20368;-78
2021/08/30 19:11:57;;;;;;;25.08;14.15;;;;;;;;;;8178044;28;20586;-78
2021/08/30 19:16:02;;;;;;;22.83;14.40;;;;;;;;;;8217677;28;20499;-78
2021/08/30 19:20:10;;;;;;;26.92;15.43;;;;;;;;;;8231644;28;20476;-78
2021/08/30 19:24:15;;;;;;;28.75;17.00;;;;;;;;;;8249339;28;20057;-79
2021/08/30 19:28:20;;;;;;;34.17;18.80;;;;;;;;;;8220175;28;20049;-77
2021/08/30 19:32:26;;;;;;;38.10;22.15;;;;;;;;;;8239757;28;20419;-78
2021/08/30 19:36:33;;;;;;;42.33;21.35;;;;;;;;;;8238457;28;20617;-78
2021/08/30 19:40:38;;;;;;;29.63;18.80;;;;;;;;;;8221067;28;20045;-80
2021/08/30 19:44:43;;;;;;;32.78;19.52;;;;;;;;;;8227644;28;20403;-79
2021/08/30 19:48:49;;;;;;;33.25;19.33;;;;;;;;;;8251924;28;20379;-78
2021/08/30 19:52:55;;;;;;;30.48;18.30;;;;;;;;;;8230634;28;20352;-78
2021/08/30 19:57:01;;;;;;;28.70;17.92;;;;;;;;;;8242253;28;20350;-78
2021/08/30 20:01:06;;;;;;;31.85;17.55;;;;;;;;;;8230783;28;20476;-79
2021/08/30 20:05:12;;;;;;;28.52;18.38;;;;;;;;;;8230026;28;20394;-79
2021/08/30 20:09:17;;;;;;;30.85;18.13;;;;;;;;;;8231842;28;20541;-78
2021/08/30 20:13:22;;;;;;;29.38;17.35;;;;;;;;;;8234408;28;20342;-79
2021/08/30 20:17:29;;;;;;;29.40;18.10;;;;;;;;;;8232608;28;20463;-78
2021/08/30 20:21:34;;;;;;;32.72;20.08;;;;;;;;;;8233161;28;20376;-78
2021/08/30 20:25:39;;;;;;;33.58;19.05;;;;;;;;;;8233675;28;20488;-78
2021/08/30 20:29:45;;;;;;;29.88;18.67;;;;;;;;;;8233525;28;20432;-77
2021/08/30 20:33:50;;;;;;;37.20;20.70;;;;;;;;;;8245499;28;20406;-77
2021/08/30 20:37:56;;;;;;;36.95;19.92;;;;;;;;;;8229167;28;20598;-78
2021/08/30 20:42:01;;;;;;;30.52;19.73;;;;;;;;;;8231645;28;20375;-78
2021/08/30 20:46:07;;;;;;;32.58;20.17;;;;;;;;;;8230525;28;20464;-79
2021/08/30 20:50:12;;;;;;;31.45;19.00;;;;;;;;;;8234172;28;20383;-78
2021/08/30 20:54:17;;;;;;;34.72;19.92;;;;;;;;;;8232293;28;20464;-77
2021/08/30 20:58:22;;;;;;;31.40;19.88;;;;;;;;;;8239935;28;20490;-78
2021/08/30 21:02:27;;;;;;;32.88;19.33;;;;;;;;;;8256731;28;20464;-78
2021/08/30 21:06:33;;;;;;;28.63;18.35;;;;;;;;;;8220921;28;20368;-79
2021/08/30 21:10:39;;;;;;;29.70;17.70;;;;;;;;;;8241713;28;20468;-78
2021/08/30 21:14:44;;;;;;;31.67;18.10;;;;;;;;;;8246028;28;20353;-80
2021/08/30 21:18:49;;;;;;;28.05;16.45;;;;;;;;;;8240028;28;20490;-79
2021/08/30 21:22:54;;;;;;;26.95;18.08;;;;;;;;;;8223646;28;20371;-78
2021/08/30 21:27:00;;;;;;;24.33;15.02;;;;;;;;;;8190806;28;20071;-78
2021/08/30 21:31:05;;;;;;;27.58;15.82;;;;;;;;;;8188199;28;20376;-78
2021/08/30 21:35:11;;;;;;;27.85;16.17;;;;;;;;;;8189609;28;20354;-78
2021/08/30 21:39:16;;;;;;;29.13;16.27;;;;;;;;;;8206620;28;20048;-78
2021/08/30 21:43:21;;;;;;;27.52;17.23;;;;;;;;;;8205135;28;20490;-78
2021/08/30 21:47:27;;;;;;;27.52;16.23;;;;;;;;;;8183134;28;20049;-79
2021/08/30 21:51:32;;;;;;;29.17;15.75;;;;;;;;;;8206541;28;20380;-76
2021/08/30 21:55:39;;;;;;;26.58;16.42;;;;;;;;;;8189367;28;20560;-78
2021/08/30 21:59:42;;;;;;;26.10;16.20;;;;;;;;;;8207916;28;20056;-78
2021/08/30 22:03:48;;;;;;;25.15;14.60;;;;;;;;;;8200069;28;20506;-78
2021/08/30 22:07:55;;;;;;;25.48;14.77;;;;;;;;;;8201587;28;20474;-77
2021/08/30 22:12:00;;;;;;;27.42;14.82;;;;;;;;;;8199184;28;20456;-77
2021/08/30 22:16:06;;;;;;;27.10;14.85;;;;;;;;;;8222317;28;20360;-76
2021/08/30 22:20:14;;;;;;;22.85;14.25;;;;;;;;;;8207633;28;20380;-76
2021/08/30 22:24:29;;;;;;;25.93;15.10;;;;;;;;;;8222552;28;20480;-77
2021/08/30 22:28:35;;;;;;;26.08;13.02;;;;;;;;;;8212603;28;20506;-77
2021/08/30 22:32:40;;;;;;;20.20;12.10;;;;;;;;;;8212560;28;20480;-77
2021/08/30 22:36:45;;;;;;;22.00;12.82;;;;;;;;;;8245477;28;20333;-77
2021/08/30 22:40:50;;;;;;;24.45;11.13;;;;;;;;;;8230612;28;20368;-77
2021/08/30 22:44:56;;;;;;;16.45;10.43;;;;;;;;;;8236739;28;20487;-77
2021/08/30 22:49:01;;;;;;;16.23;10.05;;;;;;;;;;8233233;28;20448;-76
2021/08/30 22:53:10;;;;;;;15.55;9.48;;;;;;;;;;8246003;28;20388;-77
2021/08/30 22:57:15;;;;;;;17.98;9.13;;;;;;;;;;8216101;28;20488;-76
2021/08/30 23:01:21;;;;;;;13.98;8.77;;;;;;;;;;8228901;28;20155;-76
2021/08/30 23:05:26;;;;;;;12.88;7.13;;;;;;;;;;8229784;28;20368;-76
2021/08/30 23:09:31;;;;;;;12.52;7.25;;;;;;;;;;8231795;28;20399;-77
2021/08/30 23:13:36;;;;;;;10.48;6.85;;;;;;;;;;8228781;28;20352;-77
2021/08/30 23:17:41;;;;;;;12.15;7.13;;;;;;;;;;8227504;28;20360;-76
2021/08/30 23:21:47;;;;;;;11.23;6.88;;;;;;;;;;8226946;28;20349;-78
2021/08/30 23:25:52;;;;;;;9.52;5.82;;;;;;;;;;8227029;28;20068;-76
2021/08/30 23:29:57;;;;;;;8.82;5.63;;;;;;;;;;8225639;28;20053;-78
2021/08/30 23:34:02;;;;;;;8.80;5.78;;;;;;;;;;8225619;28;20419;-77
2021/08/30 23:38:08;;;;;;;12.80;6.78;;;;;;;;;;8227375;28;20084;-78
2021/08/30 23:42:14;;;;;;;10.85;6.03;;;;;;;;;;8210383;28;20456;-76
2021/08/30 23:46:19;;;;;;;10.80;5.45;;;;;;;;;;8226928;28;20502;-76
2021/08/30 23:50:24;;;;;;;9.20;5.47;;;;;;;;;;8225848;28;20049;-77
2021/08/30 23:54:29;;;;;;;7.70;5.15;;;;;;;;;;8226273;28;20103;-77
2021/08/30 23:58:34;;;;;;;7.15;4.80;;;;;;;;;;8225620;28;20484;-76
